createdAt,value
2022-12-12T00:00:01.136Z,98997.25
2022-12-12T00:01:04.701Z,99003.31
2022-12-12T00:01:52.148Z,98998.59
2022-12-12T00:02:36.196Z,99003.31
2022-12-12T00:03:11.362Z,98999.53
2022-12-12T00:03:59.129Z,98999.31
2022-12-12T00:04:33.205Z,98999.06
2022-12-12T00:05:23.112Z,98998.72
2022-12-12T00:06:04.852Z,98985.94
2022-12-12T00:06:53.110Z,98993.59
2022-12-12T00:07:27.202Z,98991.13
2022-12-12T00:08:08.206Z,98998.88
2022-12-12T00:08:49.160Z,98995.66
2022-12-12T00:09:29.118Z,98990.88
2022-12-12T00:10:10.207Z,99000.31
2022-12-12T00:10:51.158Z,98989.50
2022-12-12T00:11:33.263Z,98980.69
2022-12-12T00:12:16.153Z,98997.88
2022-12-12T00:12:59.181Z,98989.50
2022-12-12T00:13:40.372Z,98995.03
2022-12-12T00:14:20.131Z,98994.00
2022-12-12T00:15:00.106Z,98984.63
2022-12-12T00:15:40.215Z,98993.06
2022-12-12T00:16:21.174Z,98988.63
2022-12-12T00:17:01.207Z,99001.59
2022-12-12T00:17:41.126Z,98999.53
2022-12-12T00:18:21.146Z,98994.03
2022-12-12T00:19:02.091Z,98998.31
2022-12-12T00:19:43.278Z,99004.38
2022-12-12T00:20:23.092Z,98968.25
2022-12-12T00:21:04.152Z,98984.38
2022-12-12T00:21:45.112Z,98990.31
2022-12-12T00:22:25.129Z,98993.81
2022-12-12T00:23:05.075Z,98993.66
2022-12-12T00:23:45.225Z,98998.84
2022-12-12T00:24:25.107Z,99000.16
2022-12-12T00:25:05.170Z,98987.41
2022-12-12T00:25:46.089Z,98991.47
2022-12-12T00:26:33.194Z,98998.69
2022-12-12T00:27:14.074Z,98997.31
2022-12-12T00:27:54.112Z,98992.88
2022-12-12T00:28:35.086Z,98987.06
2022-12-12T00:29:15.179Z,99002.09
2022-12-12T00:30:02.087Z,98985.88
2022-12-12T00:30:42.141Z,98997.72
2022-12-12T00:31:23.110Z,98993.66
2022-12-12T00:32:03.127Z,98994.03
2022-12-12T00:32:43.089Z,98989.91
2022-12-12T00:33:24.127Z,98998.69
2022-12-12T00:34:05.081Z,98983.78
2022-12-12T00:34:45.356Z,98990.81
2022-12-12T00:35:26.106Z,98980.97
2022-12-12T00:36:06.146Z,98988.09
2022-12-12T00:36:47.068Z,98996.59
2022-12-12T00:37:27.163Z,98988.44
2022-12-12T00:38:07.071Z,98989.78
2022-12-12T00:38:47.104Z,98993.19
2022-12-12T00:39:29.093Z,98983.63
2022-12-12T00:40:10.476Z,98994.81
2022-12-12T00:40:50.092Z,98992.72
2022-12-12T00:41:31.149Z,98996.91
2022-12-12T00:42:11.063Z,98980.97
2022-12-12T00:42:51.178Z,98997.69
2022-12-12T00:43:32.060Z,98959.19
2022-12-12T00:44:13.092Z,98994.53
2022-12-12T00:44:54.045Z,98958.19
2022-12-12T00:45:34.233Z,98992.44
2022-12-12T00:46:15.165Z,98994.63
2022-12-12T00:46:55.285Z,98996.09
2022-12-12T00:47:35.075Z,98993.44
2022-12-12T00:48:16.252Z,98999.44
2022-12-12T00:49:00.062Z,98998.59
2022-12-12T00:49:40.127Z,98986.81
2022-12-12T00:50:20.058Z,99000.88
2022-12-12T00:51:01.116Z,99000.25
2022-12-12T00:51:41.084Z,99001.34
2022-12-12T00:52:21.137Z,98989.72
2022-12-12T00:53:03.067Z,98999.66
2022-12-12T00:53:45.363Z,98993.50
2022-12-12T00:54:26.065Z,98992.56
2022-12-12T00:55:06.400Z,99000.50
2022-12-12T00:55:47.052Z,99000.88
2022-12-12T00:56:30.797Z,98989.09
2022-12-12T00:57:11.078Z,98989.78
2022-12-12T00:57:51.063Z,98989.59
2022-12-12T00:58:32.031Z,98989.03
2022-12-12T00:59:12.120Z,99000.38
2022-12-12T00:59:52.047Z,99002.72
2022-12-12T01:00:32.152Z,98990.63
2022-12-12T01:01:18.102Z,98994.88
2022-12-12T01:01:58.127Z,98998.91
2022-12-12T01:02:39.114Z,98997.09
2022-12-12T01:03:19.235Z,98998.13
2022-12-12T01:04:00.048Z,98996.78
2022-12-12T01:04:40.053Z,99004.09
2022-12-12T01:05:21.014Z,99001.72
2022-12-12T01:06:01.117Z,99001.69
2022-12-12T01:06:41.039Z,98997.63
2022-12-12T01:07:21.088Z,99005.81
2022-12-12T01:08:01.087Z,98999.44
2022-12-12T01:08:41.165Z,99007.03
2022-12-12T01:09:21.024Z,98999.53
2022-12-12T01:10:01.055Z,98988.09
2022-12-12T01:10:41.044Z,98996.69
2022-12-12T01:11:22.159Z,99000.78
2022-12-12T01:12:02.036Z,98997.63
2022-12-12T01:12:43.143Z,99005.50
2022-12-12T01:13:24.051Z,99004.63
2022-12-12T01:14:04.108Z,99000.66
2022-12-12T01:14:44.036Z,98988.44
2022-12-12T01:15:24.178Z,98988.94
2022-12-12T01:16:05.043Z,98998.94
2022-12-12T01:16:45.186Z,98993.56
2022-12-12T01:17:25.011Z,98993.44
2022-12-12T01:18:05.051Z,98978.59
2022-12-12T01:18:46.088Z,98989.91
2022-12-12T01:19:26.084Z,99004.09
2022-12-12T01:20:06.020Z,99000.34
2022-12-12T01:20:48.083Z,98992.19
2022-12-12T01:21:29.048Z,99003.53
2022-12-12T01:22:09.887Z,99000.34
2022-12-12T01:22:51.019Z,98993.66
2022-12-12T01:23:31.080Z,99000.66
2022-12-12T01:24:12.060Z,98987.34
2022-12-12T01:24:52.090Z,98992.44
2022-12-12T01:25:33.041Z,98998.59
2022-12-12T01:26:18.164Z,98982.41
2022-12-12T01:26:59.024Z,98989.41
2022-12-12T01:27:39.086Z,98988.19
2022-12-12T01:28:20.008Z,98986.50
2022-12-12T01:29:00.069Z,98983.84
2022-12-12T01:29:42.034Z,98992.75
2022-12-12T01:30:25.084Z,98994.84
2022-12-12T01:31:05.055Z,98992.75
2022-12-12T01:31:45.151Z,98987.63
2022-12-12T01:32:24.998Z,98981.78
2022-12-12T01:33:05.100Z,98992.00
2022-12-12T01:33:46.114Z,98994.28
2022-12-12T01:34:26.101Z,98990.22
2022-12-12T01:35:07.032Z,98983.66
2022-12-12T01:35:47.063Z,98982.91
2022-12-12T01:36:30.014Z,98990.75
2022-12-12T01:37:10.056Z,98963.28
2022-12-12T01:37:49.983Z,98986.91
2022-12-12T01:38:30.052Z,98984.91
2022-12-12T01:39:12.004Z,98995.59
2022-12-12T01:39:52.046Z,98990.22
2022-12-12T01:40:36.023Z,98985.44
2022-12-12T01:41:16.113Z,98986.50
2022-12-12T01:41:55.995Z,98980.13
2022-12-12T01:42:36.022Z,98981.25
2022-12-12T01:43:20.975Z,98986.97
2022-12-12T01:44:02.051Z,98978.53
2022-12-12T01:44:53.992Z,98982.72
2022-12-12T01:46:24.079Z,98995.41
2022-12-12T01:47:18.022Z,98995.59
2022-12-12T01:48:12.005Z,98984.97
2022-12-12T01:49:11.988Z,98978.50
2022-12-12T01:50:14.966Z,98962.69
2022-12-12T01:51:12.000Z,98989.31
2022-12-12T01:51:53.018Z,98982.59
2022-12-12T01:52:47.026Z,98985.50
2022-12-12T01:53:27.984Z,98977.97
2022-12-12T01:54:14.031Z,98975.88
2022-12-12T01:55:01.998Z,98975.38
2022-12-12T01:55:42.132Z,98980.41
2022-12-12T01:56:24.973Z,98974.16
2022-12-12T01:57:16.999Z,98983.16
2022-12-12T01:58:10.992Z,98981.25
2022-12-12T01:59:06.000Z,98989.91
2022-12-12T01:59:59.978Z,98981.38
2022-12-12T02:00:55.020Z,98985.53
2022-12-12T02:01:49.005Z,98974.16
2022-12-12T02:02:36.990Z,98981.41
2022-12-12T02:03:11.010Z,98957.50
2022-12-12T02:03:57.960Z,98981.94
2022-12-12T02:04:33.021Z,98964.50
2022-12-12T02:05:34.981Z,98976.63
2022-12-12T02:06:13.275Z,98978.44
2022-12-12T02:07:01.962Z,98951.97
2022-12-12T02:07:36.031Z,98967.16
2022-12-12T02:08:17.111Z,98980.25
2022-12-12T02:09:00.021Z,98979.13
2022-12-12T02:09:40.944Z,98980.41
2022-12-12T02:10:20.989Z,98957.97
2022-12-12T02:11:00.978Z,98980.81
2022-12-12T02:11:48.015Z,98976.16
2022-12-12T02:12:27.958Z,98977.00
2022-12-12T02:13:25.971Z,98979.59
2022-12-12T02:14:19.967Z,98980.34
2022-12-12T02:15:14.216Z,98982.16
2022-12-12T02:16:13.978Z,98989.16
2022-12-12T02:17:34.967Z,98983.84
2022-12-12T02:19:11.024Z,98986.34
2022-12-12T02:20:44.947Z,98974.66
2022-12-12T02:22:04.956Z,98986.50
2022-12-12T02:23:13.940Z,98985.97
2022-12-12T02:24:28.972Z,98993.50
2022-12-12T02:26:20.970Z,98993.88
2022-12-12T02:27:40.931Z,98986.75
2022-12-12T02:29:11.941Z,98981.84
2022-12-12T02:30:29.977Z,99000.41
2022-12-12T02:31:55.088Z,98992.06
2022-12-12T02:32:59.939Z,98994.72
2022-12-12T02:34:33.942Z,98985.53
2022-12-12T02:35:46.948Z,98993.66
2022-12-12T02:37:36.952Z,98989.00
2022-12-12T02:39:02.947Z,98989.09
2022-12-12T02:40:26.926Z,98994.44
2022-12-12T02:41:47.951Z,99005.50
2022-12-12T02:42:46.991Z,98987.56
2022-12-12T02:43:58.942Z,98994.25
2022-12-12T02:45:06.976Z,98989.50
2022-12-12T02:45:56.921Z,98991.97
2022-12-12T02:46:45.069Z,99006.34
2022-12-12T02:47:29.954Z,98986.28
2022-12-12T02:48:40.061Z,98987.41
2022-12-12T02:49:53.933Z,98994.88
2022-12-12T02:50:35.116Z,98981.72
2022-12-12T02:51:17.927Z,98993.28
2022-12-12T02:51:59.435Z,98998.97
2022-12-12T02:52:39.943Z,98996.53
2022-12-12T02:53:23.968Z,98996.78
2022-12-12T02:54:06.928Z,98997.72
2022-12-12T02:54:48.644Z,98995.50
2022-12-12T02:55:33.778Z,98995.72
2022-12-12T02:56:53.013Z,98988.78
2022-12-12T02:57:33.915Z,98999.34
2022-12-12T02:58:13.929Z,98997.84
2022-12-12T02:58:47.952Z,98997.25
2022-12-12T02:59:42.912Z,99000.03
2022-12-12T03:00:24.013Z,98966.56
2022-12-12T03:01:42.998Z,98991.84
2022-12-12T03:02:42.159Z,98993.06
2022-12-12T03:04:00.939Z,99013.75
2022-12-12T03:05:20.650Z,99004.34
2022-12-12T03:06:57.900Z,99001.75
2022-12-12T03:08:03.984Z,98988.03
2022-12-12T03:09:23.943Z,99005.03
2022-12-12T03:10:14.950Z,98996.53
2022-12-12T03:11:03.895Z,99006.69
2022-12-12T03:12:08.232Z,99006.22
2022-12-12T03:13:18.904Z,98995.47
2022-12-12T03:14:14.933Z,99005.72
2022-12-12T03:15:07.908Z,99003.81
2022-12-12T03:16:00.082Z,98997.41
2022-12-12T03:16:57.900Z,99009.91
2022-12-12T03:18:04.955Z,99001.75
2022-12-12T03:19:15.879Z,99003.81
2022-12-12T03:20:24.958Z,99008.59
2022-12-12T03:21:48.872Z,98991.97
2022-12-12T03:22:59.901Z,99009.66
2022-12-12T03:23:58.899Z,98983.78
2022-12-12T03:25:22.878Z,98996.31
2022-12-12T03:26:18.897Z,99001.00
2022-12-12T03:27:05.909Z,98988.13
2022-12-12T03:27:56.875Z,98996.47
2022-12-12T03:28:53.925Z,98987.34
2022-12-12T03:29:42.875Z,98995.72
2022-12-12T03:30:31.904Z,98995.81
2022-12-12T03:31:26.904Z,98991.72
2022-12-12T03:32:28.867Z,98997.25
2022-12-12T03:33:56.875Z,98999.97
2022-12-12T03:34:58.899Z,98996.53
2022-12-12T03:36:10.915Z,98993.53
2022-12-12T03:36:54.395Z,98972.34
2022-12-12T03:37:49.884Z,98996.81
2022-12-12T03:38:36.910Z,98979.75
2022-12-12T03:39:36.862Z,98983.94
2022-12-12T03:40:20.890Z,98986.06
2022-12-12T03:41:11.880Z,98985.09
2022-12-12T03:41:50.916Z,98998.72
2022-12-12T03:43:04.866Z,98985.94
2022-12-12T03:43:47.082Z,98993.22
2022-12-12T03:44:43.887Z,98993.59
2022-12-12T03:45:26.067Z,98990.44
2022-12-12T03:46:30.886Z,98988.28
2022-12-12T03:47:11.972Z,98978.06
2022-12-12T03:48:26.880Z,98986.59
2022-12-12T03:49:13.929Z,98978.41
2022-12-12T03:50:00.860Z,98988.28
2022-12-12T03:51:20.960Z,98982.03
2022-12-12T03:52:13.876Z,98980.44
2022-12-12T03:53:11.914Z,98994.38
2022-12-12T03:54:02.831Z,98985.47
2022-12-12T03:55:26.931Z,98976.75
2022-12-12T03:56:18.875Z,98988.97
2022-12-12T03:57:06.002Z,98972.69
2022-12-12T03:57:53.872Z,98984.88
2022-12-12T03:58:35.525Z,98970.34
2022-12-12T03:59:27.638Z,98975.34
2022-12-12T04:00:18.105Z,98957.78
2022-12-12T04:00:58.867Z,98977.63
2022-12-12T04:01:48.884Z,98961.13
2022-12-12T04:02:49.849Z,98974.28
2022-12-12T04:04:02.855Z,98974.81
2022-12-12T04:04:55.119Z,98966.69
2022-12-12T04:06:07.680Z,98970.81
2022-12-12T04:07:16.831Z,98968.66
2022-12-12T04:08:04.924Z,98971.03
2022-12-12T04:08:39.435Z,98976.34
2022-12-12T04:09:43.860Z,98974.22
2022-12-12T04:10:36.312Z,98971.56
2022-12-12T04:11:36.357Z,98965.34
2022-12-12T04:13:02.962Z,98975.97
2022-12-12T04:13:46.971Z,98956.47
2022-12-12T04:14:41.984Z,98978.59
2022-12-12T04:15:54.846Z,98983.53
2022-12-12T04:16:37.447Z,98974.41
2022-12-12T04:17:15.768Z,98962.88
2022-12-12T04:18:20.819Z,98975.00
2022-12-12T04:19:37.867Z,98970.28
2022-12-12T04:21:15.892Z,98971.72
2022-12-12T04:22:20.403Z,98964.50
2022-12-12T04:23:39.802Z,98972.94
2022-12-12T04:24:39.001Z,98969.50
2022-12-12T04:25:40.801Z,98975.50
2022-12-12T04:26:47.815Z,98977.81
2022-12-12T04:27:27.533Z,98969.34
2022-12-12T04:28:17.832Z,98955.34
2022-12-12T04:29:01.377Z,98975.81
2022-12-12T04:30:10.806Z,98967.28
2022-12-12T04:30:44.963Z,98972.38
2022-12-12T04:31:34.839Z,98972.47
2022-12-12T04:32:26.823Z,98976.31
2022-12-12T04:33:17.851Z,98969.94
2022-12-12T04:34:04.808Z,98972.31
2022-12-12T04:35:12.116Z,98979.06
2022-12-12T04:35:55.814Z,98966.06
2022-12-12T04:36:37.955Z,98970.53
2022-12-12T04:37:23.804Z,98962.16
2022-12-12T04:38:16.833Z,98969.97
2022-12-12T04:38:51.831Z,98978.50
2022-12-12T04:39:26.863Z,98960.09
2022-12-12T04:40:11.778Z,98974.88
2022-12-12T04:40:50.053Z,98963.69
2022-12-12T04:41:24.383Z,98972.31
2022-12-12T04:42:07.795Z,98975.25
2022-12-12T04:42:47.949Z,98969.66
2022-12-12T04:43:40.803Z,98959.91
2022-12-12T04:44:22.835Z,98975.25
2022-12-12T04:45:10.926Z,98974.28
2022-12-12T04:46:08.226Z,98966.25
2022-12-12T04:46:49.791Z,98973.75
2022-12-12T04:47:30.904Z,98960.66
2022-12-12T04:48:12.816Z,98956.47
2022-12-12T04:49:29.805Z,98985.69
2022-12-12T04:50:04.401Z,98979.75
2022-12-12T04:50:54.792Z,98978.41
2022-12-12T04:51:44.338Z,98979.91
2022-12-12T04:52:33.812Z,98968.34
2022-12-12T04:53:16.542Z,98980.50
2022-12-12T04:54:25.778Z,98969.44
2022-12-12T04:55:19.990Z,98976.78
2022-12-12T04:56:03.030Z,98935.75
2022-12-12T04:56:44.779Z,98977.75
2022-12-12T04:57:31.845Z,98970.91
2022-12-12T04:58:12.765Z,98970.16
2022-12-12T04:58:52.907Z,98968.63
2022-12-12T04:59:33.784Z,98970.06
2022-12-12T05:00:16.867Z,98956.31
2022-12-12T05:01:25.843Z,98975.25
2022-12-12T05:02:20.863Z,98978.69
2022-12-12T05:03:33.785Z,98974.25
2022-12-12T05:04:26.820Z,98970.44
2022-12-12T05:05:16.750Z,98964.59
2022-12-12T05:06:04.048Z,98967.41
2022-12-12T05:06:53.829Z,98976.09
2022-12-12T05:07:44.002Z,98974.09
2022-12-12T05:08:48.766Z,98982.63
2022-12-12T05:09:30.051Z,98965.00
2022-12-12T05:10:14.760Z,98975.47
2022-12-12T05:11:00.817Z,98977.16
2022-12-12T05:11:41.743Z,98973.56
2022-12-12T05:12:23.760Z,98978.00
2022-12-12T05:13:03.802Z,98977.91
2022-12-12T05:13:41.554Z,98970.91
2022-12-12T05:14:22.755Z,98971.75
2022-12-12T05:14:56.827Z,98973.19
2022-12-12T05:15:30.497Z,98967.78
2022-12-12T05:16:29.832Z,98976.97
2022-12-12T05:17:14.048Z,98976.97
2022-12-12T05:18:12.768Z,98964.84
2022-12-12T05:18:53.776Z,98979.34
2022-12-12T05:19:33.750Z,98975.09
2022-12-12T05:20:14.778Z,98964.75
2022-12-12T05:20:54.769Z,98971.41
2022-12-12T05:21:34.788Z,98977.53
2022-12-12T05:22:14.768Z,98973.28
2022-12-12T05:22:54.786Z,98970.53
2022-12-12T05:23:35.139Z,98963.06
2022-12-12T05:24:14.807Z,98976.78
2022-12-12T05:24:54.725Z,98976.06
2022-12-12T05:25:35.805Z,98963.38
2022-12-12T05:26:36.742Z,98960.16
2022-12-12T05:27:18.847Z,98966.50
2022-12-12T05:27:58.766Z,98967.53
2022-12-12T05:28:45.805Z,98982.31
2022-12-12T05:29:19.500Z,98975.69
2022-12-12T05:30:07.757Z,98967.72
2022-12-12T05:30:41.544Z,98966.56
2022-12-12T05:31:28.742Z,98951.97
2022-12-12T05:32:02.855Z,98967.72
2022-12-12T05:32:49.741Z,98966.03
2022-12-12T05:33:23.449Z,98971.72
2022-12-12T05:34:10.755Z,98967.63
2022-12-12T05:34:44.427Z,98959.19
2022-12-12T05:35:31.723Z,98975.88
2022-12-12T05:36:05.780Z,98934.91
2022-12-12T05:36:52.731Z,98964.69
2022-12-12T05:37:26.424Z,98963.56
2022-12-12T05:38:15.717Z,98960.84
2022-12-12T05:38:49.787Z,98955.97
2022-12-12T05:39:30.767Z,98965.28
2022-12-12T05:40:04.804Z,98968.00
2022-12-12T05:40:38.722Z,98963.38
2022-12-12T05:41:19.745Z,98974.00
2022-12-12T05:42:00.916Z,98964.59
2022-12-12T05:42:41.771Z,98956.91
2022-12-12T05:43:21.823Z,98965.09
2022-12-12T05:44:02.716Z,98968.69
2022-12-12T05:44:49.754Z,98957.91
2022-12-12T05:45:23.765Z,98972.88
2022-12-12T05:46:10.886Z,98964.69
2022-12-12T05:46:44.851Z,98970.97
2022-12-12T05:47:31.715Z,98948.75
2022-12-12T05:48:05.675Z,98952.75
2022-12-12T05:48:56.738Z,98964.50
2022-12-12T05:49:30.437Z,98963.75
2022-12-12T05:50:12.747Z,98967.63
2022-12-12T05:50:46.787Z,98972.81
2022-12-12T05:51:21.198Z,98967.72
2022-12-12T05:52:00.731Z,98953.09
2022-12-12T05:52:34.798Z,98954.84
2022-12-12T05:53:08.410Z,98973.19
2022-12-12T05:53:49.714Z,98946.66
2022-12-12T05:54:23.754Z,98956.63
2022-12-12T05:54:57.398Z,98969.59
2022-12-12T05:55:38.740Z,98962.22
2022-12-12T05:56:12.906Z,98958.13
2022-12-12T05:56:47.398Z,98967.34
2022-12-12T05:57:27.696Z,98969.81
2022-12-12T05:58:01.740Z,98967.16
2022-12-12T05:58:35.548Z,98963.75
2022-12-12T05:59:15.723Z,98968.84
2022-12-12T05:59:49.762Z,98966.03
2022-12-12T06:00:23.844Z,98954.69
2022-12-12T06:01:04.740Z,98955.44
2022-12-12T06:01:38.773Z,98961.94
2022-12-12T06:02:13.333Z,98950.50
2022-12-12T06:02:53.787Z,98957.72
2022-12-12T06:03:27.750Z,98965.94
2022-12-12T06:04:01.437Z,98964.44
2022-12-12T06:04:41.698Z,98957.13
2022-12-12T06:05:16.108Z,98944.31
2022-12-12T06:05:50.366Z,98940.03
2022-12-12T06:06:30.732Z,98957.41
2022-12-12T06:07:04.735Z,98965.94
2022-12-12T06:07:38.367Z,98957.34
2022-12-12T06:08:23.630Z,98972.09
2022-12-12T06:08:58.802Z,98961.47
2022-12-12T06:09:32.658Z,98962.16
2022-12-12T06:10:14.682Z,98961.69
2022-12-12T06:10:48.716Z,98963.97
2022-12-12T06:11:22.334Z,98969.84
2022-12-12T06:12:02.768Z,98975.31
2022-12-12T06:12:36.760Z,98950.59
2022-12-12T06:13:10.571Z,98971.88
2022-12-12T06:13:50.693Z,98966.50
2022-12-12T06:14:24.752Z,98973.44
2022-12-12T06:14:58.384Z,98971.53
2022-12-12T06:15:38.729Z,98966.25
2022-12-12T06:16:23.775Z,98967.09
2022-12-12T06:16:57.634Z,98963.00
2022-12-12T06:17:37.679Z,98966.63
2022-12-12T06:18:12.215Z,98939.03
2022-12-12T06:18:53.863Z,98964.16
2022-12-12T06:19:33.699Z,98961.31
2022-12-12T06:20:07.933Z,98972.28
2022-12-12T06:20:41.459Z,98973.66
2022-12-12T06:21:21.684Z,98959.03
2022-12-12T06:21:55.736Z,98963.13
2022-12-12T06:22:29.338Z,98966.25
2022-12-12T06:23:10.696Z,98959.88
2022-12-12T06:23:48.715Z,98967.47
2022-12-12T06:24:22.707Z,98969.84
2022-12-12T06:25:02.683Z,98951.81
2022-12-12T06:25:36.724Z,98966.25
2022-12-12T06:26:13.154Z,98970.13
2022-12-12T06:26:52.682Z,98969.44
2022-12-12T06:27:27.829Z,98968.31
2022-12-12T06:28:01.369Z,98964.13
2022-12-12T06:28:42.943Z,98955.91
2022-12-12T06:29:16.741Z,98979.97
2022-12-12T06:29:50.331Z,98978.56
2022-12-12T06:30:30.644Z,98973.63
2022-12-12T06:31:11.114Z,98976.09
2022-12-12T06:31:45.351Z,98976.16
2022-12-12T06:32:26.671Z,98973.63
2022-12-12T06:33:00.779Z,98971.91
2022-12-12T06:33:35.610Z,98978.06
2022-12-12T06:34:15.683Z,98973.03
2022-12-12T06:34:49.716Z,98982.16
2022-12-12T06:35:23.575Z,98978.75
2022-12-12T06:36:12.695Z,98985.75
2022-12-12T06:36:46.729Z,98964.91
2022-12-12T06:37:20.314Z,98961.31
2022-12-12T06:38:00.674Z,98969.84
2022-12-12T06:38:34.868Z,98981.56
2022-12-12T06:39:09.642Z,98979.88
2022-12-12T06:39:49.689Z,98984.81
2022-12-12T06:40:23.783Z,98987.25
2022-12-12T06:40:57.819Z,98978.28
2022-12-12T06:41:39.665Z,98982.16
2022-12-12T06:42:13.725Z,98979.13
2022-12-12T06:42:48.856Z,98982.31
2022-12-12T06:43:28.644Z,98976.16
2022-12-12T06:44:02.737Z,98978.91
2022-12-12T06:44:36.439Z,98976.28
2022-12-12T06:45:17.674Z,98980.44
2022-12-12T06:45:51.863Z,98977.00
2022-12-12T06:46:27.878Z,98966.34
2022-12-12T06:47:07.643Z,98972.13
2022-12-12T06:47:41.705Z,98972.41
2022-12-12T06:48:15.338Z,98970.00
2022-12-12T06:48:56.666Z,98955.81
2022-12-12T06:49:30.696Z,98974.94
2022-12-12T06:50:04.878Z,98980.19
2022-12-12T06:50:49.683Z,98989.84
2022-12-12T06:51:28.872Z,98979.59
2022-12-12T06:52:15.660Z,98971.91
2022-12-12T06:52:49.689Z,98977.59
2022-12-12T06:53:36.649Z,98992.38
2022-12-12T06:54:10.709Z,98979.13
2022-12-12T06:54:57.650Z,98984.22
2022-12-12T06:55:31.683Z,98966.50
2022-12-12T06:56:14.636Z,98986.78
2022-12-12T06:56:54.952Z,98985.28
2022-12-12T06:57:34.648Z,98961.69
2022-12-12T06:58:14.674Z,98965.66
2022-12-12T06:58:55.645Z,98979.47
2022-12-12T06:59:35.679Z,98984.75
2022-12-12T07:00:16.632Z,98978.53
2022-12-12T07:01:00.693Z,98981.19
2022-12-12T07:01:40.688Z,98968.47
2022-12-12T07:02:52.772Z,98982.91
2022-12-12T07:03:32.644Z,98991.22
2022-12-12T07:04:13.735Z,98979.13
2022-12-12T07:04:53.630Z,98995.03
2022-12-12T07:05:34.258Z,98991.22
2022-12-12T07:06:16.651Z,98984.91
2022-12-12T07:06:56.712Z,98986.22
2022-12-12T07:07:30.692Z,98992.75
2022-12-12T07:08:17.708Z,98989.38
2022-12-12T07:08:51.858Z,98993.25
2022-12-12T07:09:39.612Z,98975.41
2022-12-12T07:10:17.607Z,98991.22
2022-12-12T07:11:37.645Z,98992.84
2022-12-12T07:12:18.671Z,98975.31
2022-12-12T07:13:12.631Z,98986.78
2022-12-12T07:14:10.626Z,98985.66
2022-12-12T07:15:04.613Z,98989.38
2022-12-12T07:16:03.692Z,98995.16
2022-12-12T07:16:57.685Z,98980.94
2022-12-12T07:17:38.648Z,98997.53
2022-12-12T07:18:19.740Z,98993.50
2022-12-12T07:18:59.613Z,98993.91
2022-12-12T07:19:39.658Z,98997.41
2022-12-12T07:20:19.604Z,98979.31
2022-12-12T07:20:59.721Z,98995.16
2022-12-12T07:21:39.604Z,98988.41
2022-12-12T07:22:33.599Z,98999.03
2022-12-12T07:23:15.636Z,98990.13
2022-12-12T07:23:55.664Z,98978.19
2022-12-12T07:24:35.616Z,98969.25
2022-12-12T07:25:15.819Z,98985.19
2022-12-12T07:25:56.607Z,98992.97
2022-12-12T07:26:36.669Z,98978.75
2022-12-12T07:27:21.553Z,98987.63
2022-12-12T07:28:01.623Z,98998.66
2022-12-12T07:28:42.655Z,98999.88
2022-12-12T07:29:22.692Z,98997.69
2022-12-12T07:30:02.608Z,98982.63
2022-12-12T07:30:46.896Z,98989.38
2022-12-12T07:31:29.626Z,98995.78
2022-12-12T07:32:09.644Z,98975.63
2022-12-12T07:32:50.621Z,98996.38
2022-12-12T07:33:41.004Z,98994.66
2022-12-12T07:34:22.624Z,98993.72
2022-12-12T07:35:02.647Z,98984.81
2022-12-12T07:35:43.575Z,98995.03
2022-12-12T07:36:23.631Z,98999.59
2022-12-12T07:37:04.613Z,98987.25
2022-12-12T07:37:44.635Z,98993.72
2022-12-12T07:38:25.601Z,98989.72
2022-12-12T07:39:05.684Z,98996.75
2022-12-12T07:39:46.612Z,98983.53
2022-12-12T07:40:26.627Z,99006.50
2022-12-12T07:41:16.580Z,99001.84
2022-12-12T07:41:56.621Z,98984.50
2022-12-12T07:42:36.594Z,99002.03
2022-12-12T07:43:16.627Z,98955.78
2022-12-12T07:43:57.601Z,98979.13
2022-12-12T07:44:37.625Z,98991.81
2022-12-12T07:45:18.593Z,98964.34
2022-12-12T07:45:58.662Z,98983.53
2022-12-12T07:46:39.620Z,98986.78
2022-12-12T07:47:19.621Z,98985.56
2022-12-12T07:48:00.580Z,98982.31
2022-12-12T07:48:40.639Z,98994.88
2022-12-12T07:49:21.587Z,98995.78
2022-12-12T07:50:01.639Z,98997.31
2022-12-12T07:50:41.603Z,98990.84
2022-12-12T07:51:22.704Z,98988.41
2022-12-12T07:52:02.610Z,98996.00
2022-12-12T07:52:42.662Z,99001.50
2022-12-12T07:53:22.573Z,99004.53
2022-12-12T07:54:02.613Z,98992.59
2022-12-12T07:54:42.566Z,98987.38
2022-12-12T07:55:22.611Z,99012.88
2022-12-12T07:56:02.626Z,99007.19
2022-12-12T07:56:42.629Z,98999.59
2022-12-12T07:57:22.575Z,98994.66
2022-12-12T07:58:02.616Z,98994.78
2022-12-12T07:58:43.589Z,98996.94
2022-12-12T07:59:23.606Z,99007.44
2022-12-12T08:00:04.567Z,99011.06
2022-12-12T08:00:44.607Z,99008.19
2022-12-12T08:01:29.652Z,99001.41
2022-12-12T08:02:10.710Z,98996.75
2022-12-12T08:02:50.576Z,98989.06
2022-12-12T08:03:30.636Z,99006.13
2022-12-12T08:04:11.560Z,99014.66
2022-12-12T08:04:51.656Z,99019.50
2022-12-12T08:05:31.577Z,99012.00
2022-12-12T08:06:16.230Z,99023.56
2022-12-12T08:07:02.728Z,99002.63
2022-12-12T08:07:46.979Z,99018.53
2022-12-12T08:08:27.603Z,99001.59
2022-12-12T08:09:07.631Z,99005.47
2022-12-12T08:09:47.565Z,99005.59
2022-12-12T08:10:27.645Z,99005.84
2022-12-12T08:11:15.580Z,99012.88
2022-12-12T08:12:04.592Z,99021.59
2022-12-12T08:12:58.546Z,99014.41
2022-12-12T08:13:53.561Z,99025.84
2022-12-12T08:14:47.543Z,99021.94
2022-12-12T08:15:41.615Z,99028.78
2022-12-12T08:16:38.591Z,99011.63
2022-12-12T08:17:25.591Z,99024.72
2022-12-12T08:17:59.589Z,99037.31
2022-12-12T08:18:46.548Z,99019.50
2022-12-12T08:19:20.584Z,99021.78
2022-12-12T08:20:07.539Z,99040.06
2022-12-12T08:20:41.593Z,99013.44
2022-12-12T08:21:29.531Z,99013.28
2022-12-12T08:22:03.612Z,99009.66
2022-12-12T08:22:50.568Z,99015.53
2022-12-12T08:23:24.666Z,99015.91
2022-12-12T08:24:11.539Z,99018.69
2022-12-12T08:24:45.656Z,99024.25
2022-12-12T08:25:32.549Z,99011.16
2022-12-12T08:26:15.592Z,99029.72
2022-12-12T08:27:02.538Z,99018.94
2022-12-12T08:27:36.618Z,99025.38
2022-12-12T08:28:16.563Z,99015.72
2022-12-12T08:28:56.600Z,99007.19
2022-12-12T08:29:37.541Z,99017.34
2022-12-12T08:30:18.598Z,99013.91
2022-12-12T08:30:58.624Z,98989.19
2022-12-12T08:31:38.645Z,99021.91
2022-12-12T08:32:18.538Z,99021.91
2022-12-12T08:33:01.321Z,99022.34
2022-12-12T08:33:43.584Z,99020.47
2022-12-12T08:34:23.593Z,99016.56
2022-12-12T08:35:05.539Z,99029.00
2022-12-12T08:35:45.586Z,99019.91
2022-12-12T08:36:30.524Z,99033.16
2022-12-12T08:37:10.646Z,99029.38
2022-12-12T08:37:50.535Z,99008.44
2022-12-12T08:38:30.737Z,99017.91
2022-12-12T08:39:18.531Z,99024.44
2022-12-12T08:39:58.573Z,99022.34
2022-12-12T08:40:39.520Z,99027.38
2022-12-12T08:41:20.617Z,99023.88
2022-12-12T08:42:00.576Z,99015.16
2022-12-12T08:42:40.664Z,99012.88
2022-12-12T08:43:21.533Z,99022.75
2022-12-12T08:44:01.633Z,99022.84
2022-12-12T08:44:41.545Z,99036.41
2022-12-12T08:45:21.622Z,99031.94
2022-12-12T08:46:13.697Z,99043.03
2022-12-12T08:46:57.664Z,99031.47
2022-12-12T08:47:38.503Z,99034.13
2022-12-12T08:48:18.592Z,99033.56
2022-12-12T08:48:59.542Z,99030.13
2022-12-12T08:49:39.571Z,99027.56
2022-12-12T08:50:20.533Z,99045.88
2022-12-12T08:51:00.551Z,99037.25
2022-12-12T08:51:42.519Z,99033.94
2022-12-12T08:52:23.548Z,99014.00
2022-12-12T08:53:03.501Z,99042.28
2022-12-12T08:53:43.546Z,99029.97
2022-12-12T08:54:24.534Z,99044.34
2022-12-12T08:55:04.641Z,99019.34